createdAt,value
2018-03-02T00:02:26.207Z,36.87
2018-03-02T00:04:53.777Z,38.97
2018-03-02T00:07:21.395Z,37.07
2018-03-02T00:09:48.972Z,38.47
2018-03-02T00:12:16.562Z,36.73
2018-03-02T00:14:44.138Z,36.67
2018-03-02T00:17:11.690Z,35.10
2018-03-02T00:19:39.233Z,34.67
2018-03-02T00:22:06.824Z,34.60
2018-03-02T00:24:34.367Z,36.43
2018-03-02T00:27:01.943Z,33.47
2018-03-02T00:29:29.676Z,33.63
2018-03-02T00:31:57.224Z,34.53
2018-03-02T00:34:24.823Z,33.03
2018-03-02T00:36:52.511Z,31.37
2018-03-02T00:39:20.083Z,32.33
2018-03-02T00:41:47.653Z,29.80
2018-03-02T00:44:15.237Z,28.00
2018-03-02T00:46:42.779Z,29.00
2018-03-02T00:49:10.334Z,26.77
2018-03-02T00:51:38.073Z,23.47
2018-03-02T00:54:05.632Z,23.70
2018-03-02T00:56:33.187Z,21.23
2018-03-02T00:59:00.747Z,23.23
2018-03-02T01:01:28.315Z,24.17
2018-03-02T01:03:56.045Z,23.47
2018-03-02T01:06:23.599Z,21.90
2018-03-02T01:08:51.165Z,22.63
2018-03-02T01:11:19.033Z,21.37
2018-03-02T01:13:46.573Z,21.47
2018-03-02T01:16:14.120Z,22.30
2018-03-02T01:18:41.749Z,21.13
2018-03-02T01:21:09.297Z,21.70
2018-03-02T01:23:36.850Z,22.97
2018-03-02T01:26:04.486Z,21.63
2018-03-02T01:28:32.074Z,21.77
2018-03-02T01:30:59.626Z,20.93
2018-03-02T01:33:27.270Z,22.30
2018-03-02T01:35:54.826Z,21.53
2018-03-02T01:38:22.406Z,21.73
2018-03-02T01:40:50.163Z,20.53
2018-03-02T01:43:17.711Z,19.30
2018-03-02T01:45:45.277Z,19.23
2018-03-02T01:48:12.952Z,18.77
2018-03-02T01:50:40.940Z,18.63
2018-03-02T01:53:08.489Z,17.43
2018-03-02T01:55:36.068Z,17.97
2018-03-02T01:58:03.647Z,17.57
2018-03-02T02:00:31.186Z,16.67
2018-03-02T02:02:58.899Z,16.57
2018-03-02T02:05:26.488Z,16.17
2018-03-02T02:07:54.039Z,16.87
2018-03-02T02:10:22.092Z,17.07
2018-03-02T02:12:49.645Z,16.37
2018-03-02T02:15:17.205Z,16.93
2018-03-02T02:17:45.073Z,16.77
2018-03-02T02:20:12.621Z,15.53
2018-03-02T02:22:40.175Z,15.50
2018-03-02T02:25:07.798Z,13.30
2018-03-02T02:27:35.384Z,15.23
2018-03-02T02:30:03.642Z,15.03
2018-03-02T02:32:31.242Z,15.07
2018-03-02T02:34:58.802Z,14.33
2018-03-02T02:37:26.383Z,13.67
2018-03-02T02:39:54.591Z,16.87
2018-03-02T02:42:22.152Z,17.53
2018-03-02T02:44:49.696Z,15.03
2018-03-02T02:47:17.475Z,15.47
2018-03-02T02:49:45.311Z,15.03
2018-03-02T02:52:12.877Z,14.93
2018-03-02T02:54:40.697Z,15.40
2018-03-02T02:57:08.259Z,15.93
2018-03-02T02:59:35.813Z,16.20
2018-03-02T03:02:03.542Z,16.77
2018-03-02T03:04:31.110Z,15.10
2018-03-02T03:06:58.655Z,15.13
2018-03-02T03:09:26.256Z,16.23
2018-03-02T03:11:53.797Z,15.03
2018-03-02T03:14:21.342Z,15.00
2018-03-02T03:16:49.126Z,15.07
2018-03-02T03:19:16.693Z,13.90
2018-03-02T03:21:44.238Z,13.87
2018-03-02T03:24:12.103Z,13.53
2018-03-02T03:26:39.647Z,13.53
2018-03-02T03:29:07.214Z,13.80
2018-03-02T03:31:34.813Z,13.87
2018-03-02T03:34:02.362Z,14.50
2018-03-02T03:36:29.901Z,13.90
2018-03-02T03:38:57.494Z,13.67
2018-03-02T03:41:25.037Z,14.33
2018-03-02T03:43:52.582Z,14.30
2018-03-02T03:46:20.156Z,13.17
2018-03-02T03:48:47.705Z,13.93
2018-03-02T03:51:15.273Z,12.90
2018-03-02T03:53:42.952Z,15.07
2018-03-02T03:56:10.501Z,15.10
2018-03-02T03:58:38.059Z,14.20
2018-03-02T04:01:05.654Z,13.07
2018-03-02T04:03:33.193Z,13.00
2018-03-02T04:06:00.754Z,13.33
2018-03-02T04:08:28.338Z,13.73
2018-03-02T04:10:55.903Z,12.93
2018-03-02T04:13:23.443Z,12.90
2018-03-02T04:15:51.170Z,13.20
2018-03-02T04:18:18.722Z,13.43
2018-03-02T04:20:46.274Z,13.70
2018-03-02T04:23:13.857Z,11.87
2018-03-02T04:25:41.406Z,14.53
2018-03-02T04:28:08.950Z,14.97
2018-03-02T04:30:36.574Z,16.23
2018-03-02T04:33:04.118Z,13.97
2018-03-02T04:35:31.671Z,13.80
2018-03-02T04:37:59.402Z,16.33
2018-03-02T04:40:26.955Z,14.90
2018-03-02T04:42:54.503Z,14.17
2018-03-02T04:45:22.231Z,16.60
2018-03-02T04:47:49.781Z,14.07
2018-03-02T04:50:17.332Z,13.67
2018-03-02T04:52:44.932Z,16.40
2018-03-02T04:55:12.477Z,15.63
2018-03-02T04:57:40.039Z,15.10
2018-03-02T05:00:07.630Z,16.20
2018-03-02T05:02:35.192Z,15.83
2018-03-02T05:05:02.741Z,17.37
2018-03-02T05:07:30.355Z,58.13
2018-03-02T05:09:57.913Z,29.43
2018-03-02T05:12:25.469Z,31.37
2018-03-02T05:14:53.127Z,49.20
2018-03-02T05:17:20.649Z,23.50
2018-03-02T05:19:48.205Z,13.43
2018-03-02T05:22:15.802Z,16.93
2018-03-02T05:24:43.358Z,18.67
2018-03-02T05:27:10.908Z,31.53
2018-03-02T05:29:38.830Z,19.57
2018-03-02T05:32:06.382Z,23.57
2018-03-02T05:34:33.946Z,23.83
2018-03-02T05:37:01.742Z,24.07
2018-03-02T05:39:29.297Z,22.37
2018-03-02T05:41:56.852Z,20.83
2018-03-02T05:44:24.426Z,17.60
2018-03-02T05:46:52.008Z,17.23
2018-03-02T05:49:19.570Z,18.37
2018-03-02T05:51:47.248Z,14.67
2018-03-02T05:54:14.792Z,18.83
2018-03-02T05:56:42.346Z,22.77
2018-03-02T05:59:09.897Z,20.90
2018-03-02T06:01:37.437Z,21.83
2018-03-02T06:04:05.018Z,21.87
2018-03-02T06:06:32.593Z,20.03
2018-03-02T06:09:00.145Z,19.80
2018-03-02T06:11:27.889Z,17.63
2018-03-02T06:13:55.438Z,18.33
2018-03-02T06:16:22.987Z,29.97
2018-03-02T06:18:50.585Z,36.93
2018-03-02T06:21:18.138Z,25.17
2018-03-02T06:23:45.685Z,25.23
2018-03-02T06:26:13.276Z,23.63
2018-03-02T06:28:40.862Z,37.87
2018-03-02T06:31:08.421Z,36.10
2018-03-02T06:33:36.468Z,23.57
2018-03-02T06:36:04.026Z,25.13
2018-03-02T06:38:31.586Z,20.17
2018-03-02T06:40:59.320Z,19.63
2018-03-02T06:43:26.870Z,20.13
2018-03-02T06:45:54.418Z,22.00
2018-03-02T06:48:22.109Z,23.30
2018-03-02T06:50:49.744Z,25.23
2018-03-02T06:53:17.282Z,28.97
2018-03-02T06:55:45.027Z,59.47
2018-03-02T06:58:12.580Z,27.00
2018-03-02T07:00:40.140Z,18.20
2018-03-02T07:03:07.725Z,21.00
2018-03-02T07:05:35.265Z,25.87
2018-03-02T07:08:02.812Z,24.50
2018-03-02T07:10:30.409Z,18.63
2018-03-02T07:12:57.973Z,24.37
2018-03-02T07:15:25.521Z,20.87
2018-03-02T07:17:53.115Z,23.47
2018-03-02T07:20:20.661Z,24.83
2018-03-02T07:22:48.215Z,21.63
2018-03-02T07:25:15.810Z,22.10
2018-03-02T07:27:43.360Z,21.27
2018-03-02T07:30:10.913Z,28.13
2018-03-02T07:32:38.658Z,21.77
2018-03-02T07:35:06.201Z,19.83
2018-03-02T07:37:33.760Z,18.20
2018-03-02T07:40:01.362Z,19.90
2018-03-02T07:42:28.925Z,14.73
2018-03-02T07:44:56.475Z,17.87
2018-03-02T07:47:24.369Z,11.87
2018-03-02T07:49:51.946Z,13.10
2018-03-02T07:52:19.506Z,16.77
2018-03-02T07:54:47.234Z,14.77
2018-03-02T07:57:14.798Z,19.00
2018-03-02T07:59:42.350Z,17.97
2018-03-02T08:02:09.964Z,22.97
2018-03-02T08:04:37.513Z,22.37
2018-03-02T08:07:05.067Z,16.37
2018-03-02T08:09:32.833Z,17.87
2018-03-02T08:12:00.411Z,16.00
2018-03-02T08:14:27.975Z,16.57
2018-03-02T08:16:55.715Z,17.73
2018-03-02T08:19:23.274Z,14.63
2018-03-02T08:21:50.817Z,17.10
2018-03-02T08:24:18.563Z,15.37
2018-03-02T08:26:46.136Z,17.33
2018-03-02T08:29:13.669Z,17.07
2018-03-02T08:31:41.411Z,20.23
2018-03-02T08:34:08.989Z,17.07
2018-03-02T08:36:36.530Z,18.47
2018-03-02T08:39:04.237Z,11.77
2018-03-02T08:41:31.798Z,16.43
2018-03-02T08:43:59.385Z,15.63
2018-03-02T08:46:26.988Z,15.57
2018-03-02T08:48:54.536Z,15.60
2018-03-02T08:51:22.092Z,16.53
2018-03-02T08:53:49.686Z,18.63
2018-03-02T08:56:17.252Z,22.97
2018-03-02T08:58:44.802Z,16.80
2018-03-02T09:01:12.491Z,17.03
2018-03-02T09:03:40.033Z,15.17
2018-03-02T09:06:07.584Z,15.10
2018-03-02T09:08:35.258Z,17.53
2018-03-02T09:11:02.797Z,16.80
2018-03-02T09:13:30.365Z,15.60
2018-03-02T09:15:57.963Z,16.37
2018-03-02T09:18:25.549Z,20.43
2018-03-02T09:20:53.102Z,15.90
2018-03-02T09:23:20.675Z,16.97
2018-03-02T09:25:48.269Z,18.20
2018-03-02T09:28:15.822Z,17.23
2018-03-02T09:30:43.405Z,21.87
2018-03-02T09:33:10.946Z,18.70
2018-03-02T09:35:38.572Z,18.10
2018-03-02T09:38:06.204Z,14.77
2018-03-02T09:40:33.758Z,13.20
2018-03-02T09:43:01.307Z,12.73
2018-03-02T09:45:28.927Z,14.27
2018-03-02T09:47:56.527Z,16.07
2018-03-02T09:50:24.082Z,13.53
2018-03-02T09:52:51.808Z,15.47
2018-03-02T09:55:19.373Z,13.30
2018-03-02T09:57:46.946Z,16.67
2018-03-02T10:00:15.119Z,16.50
2018-03-02T10:02:42.664Z,16.50
2018-03-02T10:05:10.204Z,21.13
2018-03-02T10:07:37.830Z,19.00
2018-03-02T10:10:05.395Z,19.00
2018-03-02T10:12:32.952Z,29.33
2018-03-02T10:15:00.695Z,40.23
2018-03-02T10:17:28.247Z,39.53
2018-03-02T10:19:55.795Z,44.47
2018-03-02T10:22:23.376Z,39.23
2018-03-02T10:24:50.965Z,42.63
2018-03-02T10:27:18.533Z,41.80
2018-03-02T10:29:46.266Z,40.73
2018-03-02T10:32:13.815Z,43.03
2018-03-02T10:34:41.349Z,44.40
2018-03-02T10:37:09.070Z,40.07
2018-03-02T10:39:36.635Z,37.17
2018-03-02T10:42:04.219Z,34.03
2018-03-02T10:44:32.154Z,34.57
2018-03-02T10:46:59.724Z,36.17
2018-03-02T10:49:27.274Z,39.10
2018-03-02T10:51:54.861Z,38.77
2018-03-02T10:54:22.409Z,44.13
2018-03-02T10:56:49.969Z,46.70
2018-03-02T10:59:17.505Z,41.87
2018-03-02T11:01:50.652Z,45.53
2018-03-02T11:04:18.446Z,36.17
2018-03-02T11:06:45.992Z,36.53
2018-03-02T11:09:13.552Z,31.63
2018-03-02T11:11:41.132Z,32.90
2018-03-02T11:14:08.710Z,33.77
2018-03-02T11:16:36.259Z,43.57
2018-03-02T11:19:03.866Z,47.47
2018-03-02T11:21:31.425Z,42.93
2018-03-02T11:23:58.990Z,47.43
2018-03-02T11:26:26.732Z,54.57
2018-03-02T11:28:54.284Z,52.47
2018-03-02T11:31:21.837Z,49.57
2018-03-02T11:33:49.714Z,47.77
2018-03-02T11:36:17.275Z,42.50
2018-03-02T11:38:44.830Z,48.37
2018-03-02T11:41:12.578Z,48.53
2018-03-02T11:43:40.161Z,54.87
2018-03-02T11:46:07.724Z,53.27
2018-03-02T11:48:35.465Z,50.30
2018-03-02T11:51:03.022Z,69.30
2018-03-02T11:53:30.603Z,56.67
2018-03-02T11:55:58.508Z,55.63
2018-03-02T11:58:26.058Z,58.90
2018-03-02T12:00:53.644Z,58.00
2018-03-02T12:03:21.582Z,60.00
2018-03-02T12:05:49.130Z,57.77
2018-03-02T12:08:16.683Z,62.70
2018-03-02T12:10:44.262Z,63.27
2018-03-02T12:13:11.812Z,63.70
2018-03-02T12:15:39.367Z,67.30
2018-03-02T12:18:07.049Z,66.47
2018-03-02T12:20:34.596Z,70.80
2018-03-02T12:23:02.157Z,69.40
2018-03-02T12:25:29.843Z,68.27
2018-03-02T12:27:57.393Z,66.47
2018-03-02T12:30:25.848Z,67.30
2018-03-02T12:32:53.600Z,68.33
2018-03-02T12:35:21.145Z,66.90
2018-03-02T12:37:48.746Z,68.40
2018-03-02T12:40:16.335Z,65.23
2018-03-02T12:42:43.903Z,65.37
2018-03-02T12:45:11.512Z,66.57
2018-03-02T12:47:39.242Z,67.33
2018-03-02T12:50:06.792Z,66.40
2018-03-02T12:52:34.363Z,69.37
2018-03-02T12:55:02.089Z,67.47
2018-03-02T12:57:29.660Z,70.70
2018-03-02T12:59:57.231Z,68.73
2018-03-02T13:02:24.838Z,74.47
2018-03-02T13:04:52.395Z,71.80
2018-03-02T13:07:19.978Z,70.93
2018-03-02T13:09:47.879Z,68.00
2018-03-02T13:12:15.431Z,65.10
2018-03-02T13:14:43.011Z,63.63
2018-03-02T13:17:11.426Z,72.90
2018-03-02T13:19:38.983Z,66.23
2018-03-02T13:25:07.811Z,67.23
2018-03-02T13:27:46.999Z,65.07
2018-03-02T13:30:14.568Z,67.50
2018-03-02T13:32:43.043Z,66.90
2018-03-02T13:35:12.675Z,68.13
2018-03-02T13:37:40.243Z,62.53
2018-03-02T13:40:19.490Z,76.43
2018-03-02T13:42:47.065Z,64.60
2018-03-02T13:45:14.615Z,63.23
2018-03-02T13:50:42.344Z,76.83
2018-03-02T13:53:09.950Z,100.77
2018-03-02T13:55:37.510Z,79.50
2018-03-02T13:58:05.832Z,70.40
2018-03-02T14:00:33.426Z,78.53
2018-03-02T14:03:13.235Z,69.83
2018-03-02T14:05:40.989Z,69.20
2018-03-02T14:08:08.530Z,66.07
2018-03-02T14:10:36.140Z,71.27
2018-03-02T14:13:04.049Z,77.63
2018-03-02T14:15:31.601Z,75.50
2018-03-02T14:17:59.163Z,85.13
2018-03-02T14:20:26.851Z,77.93
2018-03-02T14:22:54.410Z,81.80
2018-03-02T14:25:21.961Z,78.87
2018-03-02T14:27:49.532Z,86.07
2018-03-02T14:30:17.098Z,85.97
2018-03-02T14:32:44.662Z,92.73
2018-03-02T14:35:12.262Z,91.67
2018-03-02T14:37:39.824Z,87.83
2018-03-02T14:40:07.371Z,87.80
2018-03-02T14:42:35.169Z,91.03
2018-03-02T14:45:02.724Z,92.17
2018-03-02T14:47:30.290Z,90.37
2018-03-02T14:49:58.031Z,100.10
2018-03-02T14:52:25.601Z,128.40
2018-03-02T14:54:53.164Z,108.67
2018-03-02T14:57:20.929Z,106.20
2018-03-02T14:59:48.500Z,109.10
2018-03-02T15:02:16.047Z,102.77
2018-03-02T15:04:43.669Z,107.63
2018-03-02T15:07:11.226Z,105.57
2018-03-02T15:09:38.786Z,115.90
2018-03-02T15:12:06.970Z,117.67
2018-03-02T15:14:34.521Z,112.57
2018-03-02T15:17:02.077Z,116.33
2018-03-02T15:19:29.658Z,119.93
2018-03-02T15:21:57.217Z,199.07
2018-03-02T15:24:24.762Z,160.10
2018-03-02T15:26:52.645Z,137.17
2018-03-02T15:29:20.197Z,114.47
2018-03-02T15:31:47.756Z,109.80
2018-03-02T15:34:15.361Z,111.43
2018-03-02T15:36:42.919Z,112.93
2018-03-02T15:39:10.516Z,116.43
2018-03-02T15:41:38.110Z,123.23
2018-03-02T15:44:05.676Z,297.73
2018-03-02T15:46:33.322Z,401.30
2018-03-02T15:49:01.058Z,141.53
2018-03-02T15:51:28.607Z,106.10
2018-03-02T15:53:56.215Z,100.57
2018-03-02T15:56:23.827Z,102.77
2018-03-02T15:58:51.376Z,108.07
2018-03-02T16:01:18.956Z,108.43
2018-03-02T16:03:46.723Z,108.87
2018-03-02T16:06:14.286Z,133.30
2018-03-02T16:08:41.869Z,137.70
2018-03-02T16:11:09.529Z,158.63
2018-03-02T16:13:37.102Z,139.53
2018-03-02T16:16:04.719Z,140.40
2018-03-02T16:18:32.631Z,124.63
2018-03-02T16:21:00.217Z,116.33
2018-03-02T16:23:27.803Z,113.20
2018-03-02T16:25:55.701Z,123.93
2018-03-02T16:28:23.323Z,120.20
2018-03-02T16:30:50.899Z,130.07
2018-03-02T16:33:18.531Z,122.60
2018-03-02T16:35:46.098Z,124.10
2018-03-02T16:38:13.663Z,128.30
2018-03-02T16:40:41.340Z,127.87
2018-03-02T16:43:08.942Z,123.40
2018-03-02T16:45:36.614Z,129.87
2018-03-02T16:48:04.334Z,123.83
2018-03-02T16:50:31.922Z,128.50
2018-03-02T16:52:59.507Z,135.03
2018-03-02T16:55:27.103Z,122.43
2018-03-02T16:57:54.746Z,109.57
2018-03-02T17:00:22.330Z,110.07
2018-03-02T17:02:49.922Z,112.70
2018-03-02T17:05:17.536Z,112.40
2018-03-02T17:07:45.132Z,105.37
2018-03-02T17:10:12.849Z,105.33
2018-03-02T17:12:40.416Z,100.73
2018-03-02T17:15:08.353Z,95.37
2018-03-02T17:17:36.118Z,96.43
2018-03-02T17:20:03.745Z,105.63
2018-03-02T17:22:31.331Z,84.00
2018-03-02T17:24:58.978Z,109.00
2018-03-02T17:27:26.549Z,99.87
2018-03-02T17:29:54.126Z,88.70
2018-03-02T17:32:22.067Z,88.37
2018-03-02T17:34:49.844Z,95.27
2018-03-02T17:37:17.406Z,110.10
2018-03-02T17:39:45.174Z,114.87
2018-03-02T17:42:12.748Z,122.07
2018-03-02T17:44:40.318Z,117.03
2018-03-02T17:47:07.927Z,84.60
2018-03-02T17:49:35.496Z,87.73
2018-03-02T17:52:03.066Z,103.20
2018-03-02T17:54:30.831Z,83.20
2018-03-02T17:56:58.439Z,290.30
2018-03-02T17:59:26.007Z,170.70
2018-03-02T18:01:53.944Z,194.03
2018-03-02T18:04:21.555Z,79.30
2018-03-02T18:06:49.133Z,164.80
2018-03-02T18:09:16.824Z,95.63
2018-03-02T18:11:44.373Z,92.50
2018-03-02T18:14:12.054Z,92.77
2018-03-02T18:16:39.645Z,93.87
2018-03-02T18:19:07.205Z,98.50
2018-03-02T18:21:34.807Z,85.40
2018-03-02T18:24:02.542Z,86.43
2018-03-02T18:26:30.910Z,101.27
2018-03-02T18:28:58.505Z,110.10
2018-03-02T18:31:26.384Z,96.27
2018-03-02T18:33:53.944Z,79.60
2018-03-02T18:36:21.550Z,72.20
2018-03-02T18:38:49.343Z,79.37
2018-03-02T18:41:16.929Z,99.33
2018-03-02T18:43:44.498Z,105.97
2018-03-02T18:46:12.287Z,141.57
2018-03-02T18:48:39.872Z,130.37
2018-03-02T18:51:07.458Z,91.87
2018-03-02T18:53:35.232Z,96.10
2018-03-02T18:56:02.795Z,100.67
2018-03-02T18:58:30.358Z,73.13
2018-03-02T19:00:57.977Z,63.27
2018-03-02T19:03:25.663Z,117.20
2018-03-02T19:05:53.255Z,92.53
2018-03-02T19:08:21.002Z,69.17
2018-03-02T19:10:48.565Z,70.70
2018-03-02T19:13:16.139Z,86.60
2018-03-02T19:15:43.870Z,73.13
2018-03-02T19:18:11.461Z,79.37
2018-03-02T19:20:39.088Z,138.13
2018-03-02T19:23:06.811Z,94.03
2018-03-02T19:25:34.475Z,94.20
2018-03-02T19:28:02.159Z,80.53
2018-03-02T19:30:29.980Z,96.53
2018-03-02T19:32:57.633Z,91.63
2018-03-02T19:35:25.321Z,74.33
2018-03-02T19:37:53.615Z,72.60
2018-03-02T19:40:21.306Z,72.17
2018-03-02T19:42:48.950Z,90.53
2018-03-02T19:45:16.784Z,73.13
2018-03-02T19:47:44.562Z,65.80
2018-03-02T19:50:12.244Z,61.10
2018-03-02T19:52:40.271Z,55.00
2018-03-02T19:55:07.942Z,56.90
2018-03-02T19:57:35.617Z,54.70
2018-03-02T20:00:03.644Z,54.63
2018-03-02T20:02:31.319Z,60.03
2018-03-02T20:04:58.925Z,51.60
2018-03-02T20:07:26.876Z,55.43
2018-03-02T20:09:54.491Z,52.03
2018-03-02T20:12:22.137Z,59.17
2018-03-02T20:14:49.803Z,55.73
2018-03-02T20:17:17.480Z,53.13
2018-03-02T20:19:45.082Z,51.83
2018-03-02T20:22:12.802Z,54.87
2018-03-02T20:24:40.385Z,49.63
2018-03-02T20:27:07.952Z,50.40
2018-03-02T20:29:35.716Z,46.60
2018-03-02T20:32:03.293Z,47.33
2018-03-02T20:34:30.856Z,48.80
2018-03-02T20:36:58.471Z,55.10
2018-03-02T20:39:26.041Z,46.00
2018-03-02T20:41:53.606Z,54.60
2018-03-02T20:44:21.343Z,68.73
2018-03-02T20:46:48.908Z,67.70
2018-03-02T20:49:16.473Z,61.63
2018-03-02T20:51:44.068Z,82.10
2018-03-02T20:54:11.667Z,79.00
2018-03-02T20:56:39.239Z,68.33
2018-03-02T20:59:06.859Z,67.73
2018-03-02T21:01:34.415Z,68.87
2018-03-02T21:04:02.004Z,69.13
2018-03-02T21:06:29.563Z,69.93
2018-03-02T21:08:57.122Z,73.87
2018-03-02T21:11:24.750Z,72.47
2018-03-02T21:13:52.324Z,69.30
2018-03-02T21:16:19.904Z,67.27
2018-03-02T21:18:47.493Z,67.57
2018-03-02T21:21:15.053Z,70.50
2018-03-02T21:23:42.612Z,73.00
2018-03-02T21:26:10.194Z,72.10
2018-03-02T21:28:37.763Z,74.43
2018-03-02T21:31:05.329Z,67.03
2018-03-02T21:33:32.907Z,72.70
2018-03-02T21:36:00.471Z,61.93
2018-03-02T21:38:28.031Z,61.97
2018-03-02T21:40:55.668Z,67.27
2018-03-02T21:43:23.223Z,67.83
2018-03-02T21:45:50.789Z,68.07
2018-03-02T21:48:18.361Z,68.10
2018-03-02T21:50:45.908Z,68.83
2018-03-02T21:53:13.447Z,66.97
2018-03-02T21:55:41.152Z,71.93
2018-03-02T21:58:08.762Z,73.07
2018-03-02T22:00:36.319Z,80.90
2018-03-02T22:03:03.921Z,74.20
2018-03-02T22:05:31.491Z,72.97
2018-03-02T22:07:59.066Z,74.70
2018-03-02T22:10:26.649Z,73.27
2018-03-02T22:12:54.210Z,76.33
2018-03-02T22:15:21.761Z,74.27
2018-03-02T22:17:49.351Z,77.17
2018-03-02T22:20:16.910Z,78.27
2018-03-02T22:22:44.457Z,82.10
2018-03-02T22:25:12.031Z,86.70
2018-03-02T22:27:39.592Z,80.37
2018-03-02T22:30:07.149Z,83.93
2018-03-02T22:32:35.013Z,79.73
2018-03-02T22:35:02.566Z,84.67
2018-03-02T22:37:30.128Z,83.97
2018-03-02T22:39:57.898Z,81.90
2018-03-02T22:42:25.463Z,95.23
2018-03-02T22:44:53.026Z,91.60
2018-03-02T22:47:20.712Z,94.90
2018-03-02T22:49:48.269Z,84.57
2018-03-02T22:52:15.834Z,84.27
2018-03-02T22:54:43.837Z,87.60
2018-03-02T22:57:11.386Z,87.27
2018-03-02T22:59:38.949Z,107.63
2018-03-02T23:02:06.705Z,86.37
2018-03-02T23:04:35.458Z,79.23
2018-03-02T23:07:03.029Z,87.83
2018-03-02T23:09:30.810Z,82.67
2018-03-02T23:11:58.373Z,79.50
2018-03-02T23:14:25.956Z,79.90
2018-03-02T23:16:53.712Z,70.77
2018-03-02T23:19:21.263Z,69.33
2018-03-02T23:21:48.818Z,68.80
2018-03-02T23:24:16.565Z,87.20
2018-03-02T23:26:44.119Z,67.80
2018-03-02T23:29:11.667Z,64.30
2018-03-02T23:31:39.275Z,68.70
2018-03-02T23:34:06.834Z,31.27
2018-03-02T23:36:34.400Z,55.73
2018-03-02T23:39:02.005Z,55.07
2018-03-02T23:41:29.566Z,52.27
2018-03-02T23:43:57.122Z,49.70
2018-03-02T23:46:24.776Z,54.90
2018-03-02T23:48:52.322Z,49.60
2018-03-02T23:51:19.900Z,47.13
2018-03-02T23:53:47.471Z,46.30
2018-03-02T23:56:15.030Z,47.83
2018-03-02T23:58:42.578Z,47.10
